createdAt,value
2023-04-08T00:00:49.412Z,102470.50
2023-04-08T00:03:15.958Z,102473.00
2023-04-08T00:05:42.459Z,102469.50
2023-04-08T00:08:08.789Z,102477.72
2023-04-08T00:10:35.324Z,102472.16
2023-04-08T00:13:01.806Z,102477.50
2023-04-08T00:15:28.269Z,102473.19
2023-04-08T00:17:54.802Z,102475.06
2023-04-08T00:20:24.145Z,102469.91
2023-04-08T00:22:50.939Z,102479.56
2023-04-08T00:25:17.384Z,102475.88
2023-04-08T00:27:43.917Z,102479.38
2023-04-08T00:30:11.553Z,102477.75
2023-04-08T00:32:38.148Z,102478.13
2023-04-08T00:35:05.263Z,102472.00
2023-04-08T00:37:31.815Z,102473.81
2023-04-08T00:39:58.405Z,102486.53
2023-04-08T00:42:24.934Z,102488.59
2023-04-08T00:44:51.564Z,102489.03
2023-04-08T00:47:18.538Z,102489.44
2023-04-08T00:49:45.348Z,102491.31
2023-04-08T00:52:11.801Z,102495.41
2023-04-08T00:54:38.566Z,102495.00
2023-04-08T00:57:06.269Z,102490.69
2023-04-08T00:59:33.919Z,102488.81
2023-04-08T01:02:16.854Z,102491.72
2023-04-08T01:04:50.046Z,102497.84
2023-04-08T01:07:27.696Z,102500.72
2023-04-08T01:10:02.011Z,102496.22
2023-04-08T01:12:33.021Z,102502.38
2023-04-08T01:15:04.848Z,102497.66
2023-04-08T01:17:32.302Z,102503.81
2023-04-08T01:20:01.800Z,102500.13
2023-04-08T01:22:43.761Z,102502.78
2023-04-08T01:25:23.678Z,102512.00
2023-04-08T01:27:50.909Z,102505.03
2023-04-08T01:30:21.942Z,102498.84
2023-04-08T01:32:49.494Z,102506.03
2023-04-08T01:35:16.510Z,102503.78
2023-04-08T01:37:44.993Z,102508.69
2023-04-08T01:40:12.306Z,102507.84
2023-04-08T01:42:39.295Z,102499.47
2023-04-08T01:45:06.909Z,102500.09
2023-04-08T01:47:34.954Z,102509.94
2023-04-08T01:50:03.235Z,102505.81
2023-04-08T01:52:30.785Z,102511.53
2023-04-08T01:54:57.291Z,102514.81
2023-04-08T01:57:27.013Z,102519.97
2023-04-08T01:59:58.500Z,102514.22
2023-04-08T02:02:27.092Z,102526.13
2023-04-08T02:04:56.074Z,102513.41
2023-04-08T02:07:22.530Z,102516.09
2023-04-08T02:09:49.893Z,102512.41
2023-04-08T02:12:16.478Z,102505.81
2023-04-08T02:14:43.446Z,102503.16
2023-04-08T02:17:21.370Z,102506.25
2023-04-08T02:19:56.321Z,102509.94
2023-04-08T02:22:44.765Z,102510.75
2023-04-08T02:25:14.900Z,102513.44
2023-04-08T02:27:43.545Z,102523.06
2023-04-08T02:30:11.992Z,102522.84
2023-04-08T02:32:39.127Z,102517.13
2023-04-08T02:35:05.901Z,102519.16
2023-04-08T02:37:32.750Z,102523.69
2023-04-08T02:39:59.455Z,102516.28
2023-04-08T02:42:26.368Z,102519.34
2023-04-08T02:44:53.015Z,102519.34
2023-04-08T02:47:19.392Z,102526.72
2023-04-08T02:49:45.905Z,102527.75
2023-04-08T02:52:12.406Z,102527.94
2023-04-08T02:54:38.766Z,102531.63
2023-04-08T02:57:05.338Z,102527.94
2023-04-08T02:59:31.695Z,102540.41
2023-04-08T03:01:58.151Z,102537.56
2023-04-08T03:04:24.586Z,102543.72
2023-04-08T03:06:50.999Z,102540.03
2023-04-08T03:09:17.443Z,102538.19
2023-04-08T03:11:44.910Z,102539.78
2023-04-08T03:14:11.559Z,102542.03
2023-04-08T03:16:37.934Z,102542.88
2023-04-08T03:19:04.380Z,102541.03
2023-04-08T03:21:31.832Z,102542.66
2023-04-08T03:23:58.304Z,102535.31
2023-04-08T03:26:27.066Z,102543.28
2023-04-08T03:28:53.503Z,102540.00
2023-04-08T03:31:21.255Z,102540.22
2023-04-08T03:33:47.878Z,102534.03
2023-04-08T03:36:14.262Z,102542.63
2023-04-08T03:38:40.758Z,102538.31
2023-04-08T03:41:07.157Z,102536.63
2023-04-08T03:43:33.925Z,102538.91
2023-04-08T03:46:01.188Z,102540.75
2023-04-08T03:48:28.228Z,102547.25
2023-04-08T03:50:54.581Z,102546.06
2023-04-08T03:53:21.030Z,102546.25
2023-04-08T03:55:50.568Z,102545.00
2023-04-08T03:58:16.885Z,102552.16
2023-04-08T04:00:43.273Z,102556.06
2023-04-08T04:03:13.046Z,102556.06
2023-04-08T04:05:40.257Z,102560.94
2023-04-08T04:08:07.165Z,102568.13
2023-04-08T04:10:33.653Z,102564.19
2023-04-08T04:13:00.516Z,102572.97
2023-04-08T04:15:27.127Z,102565.38
2023-04-08T04:17:53.657Z,102577.41
2023-04-08T04:20:21.641Z,102573.50
2023-04-08T04:22:47.964Z,102579.41
2023-04-08T04:25:14.468Z,102582.25
2023-04-08T04:27:40.853Z,102582.47
2023-04-08T04:30:09.436Z,102587.16
2023-04-08T04:32:35.851Z,102594.50
2023-04-08T04:35:02.362Z,102601.69
2023-04-08T04:37:28.783Z,102595.72
2023-04-08T04:39:55.317Z,102599.97
2023-04-08T04:42:21.750Z,102596.69
2023-04-08T04:44:48.130Z,102601.75
2023-04-08T04:47:16.076Z,102609.31
2023-04-08T04:49:42.826Z,102607.41
2023-04-08T04:52:09.214Z,102610.25
2023-04-08T04:54:38.753Z,102616.38
2023-04-08T04:57:05.427Z,102619.41
2023-04-08T04:59:31.903Z,102627.94
2023-04-08T05:01:58.466Z,102628.50
2023-04-08T05:04:26.272Z,102630.56
2023-04-08T05:06:52.754Z,102633.38
2023-04-08T05:09:19.148Z,102632.31
2023-04-08T05:11:45.559Z,102632.59
2023-04-08T05:14:12.380Z,102632.59
2023-04-08T05:16:39.266Z,102637.41
2023-04-08T05:19:05.853Z,102639.00
2023-04-08T05:21:32.667Z,102638.34
2023-04-08T05:23:59.146Z,102643.22
2023-04-08T05:26:26.243Z,102647.25
2023-04-08T05:28:52.836Z,102646.63
2023-04-08T05:31:20.131Z,102646.81
2023-04-08T05:33:47.545Z,102641.69
2023-04-08T05:36:14.596Z,102651.69
2023-04-08T05:38:43.173Z,102650.38
2023-04-08T05:41:09.664Z,102647.09
2023-04-08T05:43:36.807Z,102647.94
2023-04-08T05:46:08.006Z,102655.63
2023-04-08T05:48:34.439Z,102654.44
2023-04-08T05:51:01.088Z,102656.72
2023-04-08T05:53:27.589Z,102660.47
2023-04-08T05:55:54.028Z,102657.84
2023-04-08T05:58:20.675Z,102662.66
2023-04-08T06:00:47.161Z,102651.75
2023-04-08T06:03:13.936Z,102663.56
2023-04-08T06:05:40.605Z,102655.22
2023-04-08T06:08:07.068Z,102666.50
2023-04-08T06:10:33.497Z,102666.38
2023-04-08T06:12:59.941Z,102660.41
2023-04-08T06:15:26.490Z,102673.50
2023-04-08T06:17:52.994Z,102660.84
2023-04-08T06:20:19.352Z,102662.50
2023-04-08T06:22:45.773Z,102664.72
2023-04-08T06:25:12.324Z,102670.69
2023-04-08T06:27:38.748Z,102667.78
2023-04-08T06:30:05.735Z,102683.25
2023-04-08T06:32:32.235Z,102686.06
2023-04-08T06:34:59.818Z,102686.84
2023-04-08T06:37:26.269Z,102684.31
2023-04-08T06:39:52.720Z,102700.53
2023-04-08T06:42:19.852Z,102707.50
2023-04-08T06:44:46.240Z,102711.63
2023-04-08T06:47:12.615Z,102715.59
2023-04-08T06:49:39.091Z,102708.25
2023-04-08T06:52:06.874Z,102711.16
2023-04-08T06:54:33.257Z,102709.75
2023-04-08T06:56:59.658Z,102719.19
2023-04-08T06:59:26.081Z,102716.81
2023-04-08T07:01:52.589Z,102720.19
2023-04-08T07:04:19.114Z,102721.88
2023-04-08T07:06:45.820Z,102723.97
2023-04-08T07:09:12.235Z,102737.09
2023-04-08T07:11:38.566Z,102731.00
2023-04-08T07:14:04.958Z,102731.66
2023-04-08T07:16:31.358Z,102736.84
2023-04-08T07:18:58.005Z,102740.81
2023-04-08T07:21:24.412Z,102744.13
2023-04-08T07:23:50.820Z,102739.41
2023-04-08T07:26:17.287Z,102745.19
2023-04-08T07:28:43.723Z,102763.47
2023-04-08T07:31:11.946Z,102751.81
2023-04-08T07:33:38.367Z,102758.00
2023-04-08T07:36:05.190Z,102759.44
2023-04-08T07:38:31.783Z,102763.56
2023-04-08T07:40:58.227Z,102767.69
2023-04-08T07:43:24.557Z,102762.75
2023-04-08T07:45:51.279Z,102762.75
2023-04-08T07:48:17.827Z,102765.03
2023-04-08T07:51:09.488Z,102758.00
2023-04-08T07:53:33.563Z,102763.56
2023-04-08T07:56:00.707Z,102766.63
2023-04-08T07:58:27.435Z,102770.72
2023-04-08T08:00:54.192Z,102761.44
2023-04-08T08:03:20.790Z,102760.00
2023-04-08T08:05:47.249Z,102761.56
2023-04-08T08:08:13.630Z,102765.19
2023-04-08T08:10:40.632Z,102770.69
2023-04-08T08:13:08.036Z,102778.84
2023-04-08T08:15:34.475Z,102774.66
2023-04-08T08:18:01.149Z,102767.00
2023-04-08T08:20:28.030Z,102770.34
2023-04-08T08:22:57.521Z,102760.97
2023-04-08T08:25:26.075Z,102759.59
2023-04-08T08:27:52.943Z,102776.22
2023-04-08T08:30:21.225Z,102773.03
2023-04-08T08:32:48.381Z,102773.09
2023-04-08T08:35:14.872Z,102780.63
2023-04-08T08:37:41.745Z,102773.41
2023-04-08T08:40:09.019Z,102777.22
2023-04-08T08:42:35.839Z,102781.50
2023-04-08T08:45:03.528Z,102769.78
2023-04-08T08:47:31.015Z,102778.72
2023-04-08T08:49:57.771Z,102790.31
2023-04-08T08:52:24.335Z,102776.88
2023-04-08T08:54:58.981Z,102779.22
2023-04-08T08:57:25.740Z,102781.28
2023-04-08T08:59:52.688Z,102786.28
2023-04-08T09:02:30.044Z,102792.78
2023-04-08T09:05:01.605Z,102782.66
2023-04-08T09:07:30.537Z,102787.31
2023-04-08T09:09:58.579Z,102790.63
2023-04-08T09:12:28.157Z,102795.63
2023-04-08T09:15:06.056Z,102790.53
2023-04-08T09:17:37.748Z,102799.75
2023-04-08T09:20:12.245Z,102801.81
2023-04-08T09:22:53.963Z,102792.31
2023-04-08T09:25:27.829Z,102806.59
2023-04-08T09:27:54.730Z,102801.28
2023-04-08T09:30:23.183Z,102803.13
2023-04-08T09:32:57.910Z,102804.31
2023-04-08T09:35:25.620Z,102801.28
2023-04-08T09:37:52.158Z,102809.63
2023-04-08T09:40:18.674Z,102807.69
2023-04-08T09:42:52.313Z,102813.81
2023-04-08T09:45:19.155Z,102810.38
2023-04-08T09:48:01.363Z,102812.72
2023-04-08T09:50:31.981Z,102807.25
2023-04-08T09:53:15.260Z,102804.28
2023-04-08T09:55:44.101Z,102808.63
2023-04-08T09:58:21.539Z,102799.53
2023-04-08T10:00:51.754Z,102808.19
2023-04-08T10:03:33.400Z,102799.69
2023-04-08T10:06:03.369Z,102804.56
2023-04-08T10:08:33.091Z,102798.00
2023-04-08T10:10:59.848Z,102794.25
2023-04-08T10:13:28.449Z,102791.44
2023-04-08T10:16:17.722Z,102784.75
2023-04-08T10:18:44.539Z,102791.69
2023-04-08T10:21:51.453Z,102786.03
2023-04-08T10:24:18.938Z,102790.97
2023-04-08T10:26:45.761Z,102784.69
2023-04-08T10:29:18.239Z,102780.06
2023-04-08T10:31:45.369Z,102781.94
2023-04-08T10:34:22.847Z,102777.09
2023-04-08T10:36:49.821Z,102792.31
2023-04-08T10:39:16.942Z,102793.75
2023-04-08T10:41:48.068Z,102791.50
2023-04-08T10:44:19.102Z,102789.03
2023-04-08T10:46:46.823Z,102789.38
2023-04-08T10:49:14.137Z,102780.09
2023-04-08T10:51:42.077Z,102784.97
2023-04-08T10:54:09.675Z,102783.41
2023-04-08T10:56:43.725Z,102777.41
2023-04-08T10:59:10.980Z,102776.91
2023-04-08T11:01:41.905Z,102779.94
2023-04-08T11:04:15.663Z,102775.88
2023-04-08T11:06:43.932Z,102775.34
2023-04-08T11:09:11.087Z,102777.25
2023-04-08T11:11:37.871Z,102770.72
2023-04-08T11:14:05.818Z,102775.34
2023-04-08T11:16:32.694Z,102773.72
2023-04-08T11:18:59.648Z,102771.84
2023-04-08T11:21:29.638Z,102768.78
2023-04-08T11:23:56.391Z,102763.34
2023-04-08T11:26:23.598Z,102766.09
2023-04-08T11:28:51.681Z,102759.84
2023-04-08T11:31:20.650Z,102761.47
2023-04-08T11:33:52.722Z,102763.44
2023-04-08T11:36:19.362Z,102763.94
2023-04-08T11:38:47.846Z,102764.50
2023-04-08T11:41:14.615Z,102769.38
2023-04-08T11:43:51.713Z,102768.28
2023-04-08T11:46:20.432Z,102763.69
2023-04-08T11:48:59.978Z,102761.78
2023-04-08T11:51:27.966Z,102767.09
2023-04-08T11:53:56.388Z,102767.09
2023-04-08T11:56:23.958Z,102768.38
2023-04-08T11:58:51.812Z,102770.03
2023-04-08T12:01:18.745Z,102770.75
2023-04-08T12:04:02.169Z,102764.47
2023-04-08T12:06:29.351Z,102771.69
2023-04-08T12:08:56.703Z,102765.00
2023-04-08T12:11:23.568Z,102767.81
2023-04-08T12:13:51.158Z,102764.41
2023-04-08T12:16:18.879Z,102756.50
2023-04-08T12:18:45.620Z,102755.63
2023-04-08T12:21:12.335Z,102761.84
2023-04-08T12:23:38.787Z,102760.59
2023-04-08T12:26:05.457Z,102754.47
2023-04-08T12:28:31.844Z,102761.53
2023-04-08T12:30:58.284Z,102758.44
2023-04-08T12:33:24.718Z,102760.00
2023-04-08T12:35:51.372Z,102756.28
2023-04-08T12:38:17.805Z,102767.50
2023-04-08T12:40:44.337Z,102764.03
2023-04-08T12:43:10.758Z,102755.09
2023-04-08T12:45:37.228Z,102758.25
2023-04-08T12:48:03.865Z,102751.22
2023-04-08T12:50:30.812Z,102747.97
2023-04-08T12:52:57.220Z,102754.72
2023-04-08T12:55:25.065Z,102757.19
2023-04-08T12:57:52.557Z,102756.91
2023-04-08T13:00:19.565Z,102757.19
2023-04-08T13:02:46.524Z,102761.53
2023-04-08T13:05:13.041Z,102759.06
2023-04-08T13:07:39.542Z,102760.19
2023-04-08T13:10:07.114Z,102750.25
2023-04-08T13:12:33.522Z,102760.53
2023-04-08T13:15:01.250Z,102760.63
2023-04-08T13:17:28.200Z,102762.88
2023-04-08T13:19:54.671Z,102760.16
2023-04-08T13:22:21.049Z,102757.97
2023-04-08T13:24:47.873Z,102759.88
2023-04-08T13:27:14.229Z,102759.22
2023-04-08T13:29:40.742Z,102757.78
2023-04-08T13:32:07.211Z,102749.91
2023-04-08T13:34:33.638Z,102756.78
2023-04-08T13:37:00.154Z,102754.50
2023-04-08T13:39:26.448Z,102747.13
2023-04-08T13:41:52.928Z,102753.25
2023-04-08T13:44:19.443Z,102750.41
2023-04-08T13:46:46.157Z,102744.19
2023-04-08T13:49:12.594Z,102744.19
2023-04-08T13:51:39.156Z,102743.69
2023-04-08T13:54:05.915Z,102749.75
2023-04-08T13:56:32.348Z,102744.91
2023-04-08T13:58:58.948Z,102751.69
2023-04-08T14:01:25.871Z,102743.94
2023-04-08T14:03:52.439Z,102741.03
2023-04-08T14:06:18.792Z,102737.84
2023-04-08T14:08:45.123Z,102740.38
2023-04-08T14:11:11.505Z,102735.34
2023-04-08T14:13:37.988Z,102735.03
2023-04-08T14:16:04.604Z,102737.84
2023-04-08T14:18:31.187Z,102732.47
2023-04-08T14:20:57.753Z,102728.03
2023-04-08T14:23:24.196Z,102734.38
2023-04-08T14:25:50.829Z,102728.38
2023-04-08T14:28:17.358Z,102728.78
2023-04-08T14:30:43.762Z,102725.78
2023-04-08T14:33:10.725Z,102717.78
2023-04-08T14:35:37.808Z,102729.63
2023-04-08T14:38:04.249Z,102724.25
2023-04-08T14:40:30.647Z,102714.47
2023-04-08T14:42:57.092Z,102728.59
2023-04-08T14:45:23.618Z,102719.94
2023-04-08T14:47:50.078Z,102716.09
2023-04-08T14:50:16.834Z,102720.38
2023-04-08T14:52:45.329Z,102727.44
2023-04-08T14:55:12.049Z,102708.94
2023-04-08T14:57:38.440Z,102709.44
2023-04-08T15:00:05.614Z,102712.16
2023-04-08T15:02:32.191Z,102713.50
2023-04-08T15:04:58.713Z,102712.72
2023-04-08T15:07:25.417Z,102715.91
2023-04-08T15:09:52.003Z,102709.09
2023-04-08T15:12:18.464Z,102708.97
2023-04-08T15:14:45.060Z,102698.66
2023-04-08T15:17:11.456Z,102708.75
2023-04-08T15:19:37.778Z,102701.41
2023-04-08T15:22:04.194Z,102699.25
2023-04-08T15:24:30.562Z,102700.91
2023-04-08T15:26:57.205Z,102701.78
2023-04-08T15:29:23.987Z,102712.09
2023-04-08T15:31:50.408Z,102707.41
2023-04-08T15:34:16.917Z,102702.50
2023-04-08T15:36:43.392Z,102707.16
2023-04-08T15:39:09.916Z,102707.44
2023-04-08T15:41:36.487Z,102700.94
2023-04-08T15:44:02.961Z,102707.53
2023-04-08T15:46:29.501Z,102704.00
2023-04-08T15:48:56.052Z,102707.53
2023-04-08T15:51:22.853Z,102704.84
2023-04-08T15:53:51.472Z,102715.41
2023-04-08T15:56:18.347Z,102709.16
2023-04-08T15:58:46.037Z,102713.19
2023-04-08T16:01:13.308Z,102706.94
2023-04-08T16:03:39.972Z,102714.53
2023-04-08T16:06:07.272Z,102713.91
2023-04-08T16:08:34.798Z,102710.56
2023-04-08T16:11:02.823Z,102710.56
2023-04-08T16:13:30.247Z,102710.28
2023-04-08T16:16:03.192Z,102716.22
2023-04-08T16:18:30.310Z,102713.63
2023-04-08T16:20:57.178Z,102709.22
2023-04-08T16:23:23.975Z,102709.00
2023-04-08T16:25:50.545Z,102709.84
2023-04-08T16:28:18.063Z,102703.53
2023-04-08T16:30:44.629Z,102701.56
2023-04-08T16:33:11.248Z,102707.69
2023-04-08T16:35:37.759Z,102703.72
2023-04-08T16:38:04.567Z,102705.13
2023-04-08T16:40:33.111Z,102702.81
2023-04-08T16:43:02.492Z,102707.75
2023-04-08T16:45:30.037Z,102705.06
2023-04-08T16:47:57.140Z,102707.22
2023-04-08T16:50:23.752Z,102703.41
2023-04-08T16:52:50.500Z,102709.88
2023-04-08T16:55:17.566Z,102712.59
2023-04-08T16:57:44.073Z,102715.53
2023-04-08T17:00:11.149Z,102711.38
2023-04-08T17:02:37.723Z,102714.69
2023-04-08T17:05:04.697Z,102714.06
2023-04-08T17:07:31.197Z,102713.97
2023-04-08T17:09:57.775Z,102717.06
2023-04-08T17:12:24.484Z,102715.19
2023-04-08T17:14:51.170Z,102709.78
2023-04-08T17:17:17.580Z,102717.63
2023-04-08T17:19:44.212Z,102708.94
2023-04-08T17:22:10.778Z,102723.78
2023-04-08T17:24:37.197Z,102720.44
2023-04-08T17:27:03.745Z,102720.84
2023-04-08T17:29:30.089Z,102715.03
2023-04-08T17:31:56.687Z,102719.34
2023-04-08T17:34:24.547Z,102727.34
2023-04-08T17:36:51.439Z,102717.56
2023-04-08T17:39:18.419Z,102717.97
2023-04-08T17:41:45.952Z,102719.84
2023-04-08T17:44:12.532Z,102726.94
2023-04-08T17:46:39.009Z,102727.72
2023-04-08T17:49:05.592Z,102724.84
2023-04-08T17:51:31.988Z,102721.53
2023-04-08T17:53:58.895Z,102725.63
2023-04-08T17:56:27.114Z,102726.28
2023-04-08T17:58:53.675Z,102732.19
2023-04-08T18:01:22.278Z,102730.72
2023-04-08T18:03:50.880Z,102727.59
2023-04-08T18:06:18.035Z,102725.13
2023-04-08T18:08:45.366Z,102732.09
2023-04-08T18:11:12.160Z,102727.59
2023-04-08T18:13:38.591Z,102727.81
2023-04-08T18:16:05.298Z,102725.06
2023-04-08T18:18:31.797Z,102723.69
2023-04-08T18:20:58.325Z,102729.13
2023-04-08T18:23:24.670Z,102735.13
2023-04-08T18:25:51.155Z,102736.41
2023-04-08T18:28:17.649Z,102738.19
2023-04-08T18:30:44.086Z,102741.16
2023-04-08T18:33:10.461Z,102744.06
2023-04-08T18:35:36.997Z,102735.38
2023-04-08T18:38:03.516Z,102740.56
2023-04-08T18:40:31.248Z,102745.69
2023-04-08T18:43:01.865Z,102750.59
2023-04-08T18:45:29.300Z,102748.97
2023-04-08T18:47:56.271Z,102759.53
2023-04-08T18:50:23.455Z,102750.53
2023-04-08T18:52:49.977Z,102757.31
2023-04-08T18:55:16.732Z,102747.50
2023-04-08T18:57:43.185Z,102761.53
2023-04-08T19:00:09.703Z,102753.59
2023-04-08T19:02:36.149Z,102757.69
2023-04-08T19:05:02.608Z,102763.56
2023-04-08T19:07:29.041Z,102760.84
2023-04-08T19:09:58.591Z,102764.34
2023-04-08T19:12:26.562Z,102757.13
2023-04-08T19:14:53.677Z,102762.13
2023-04-08T19:17:20.434Z,102766.97
2023-04-08T19:19:46.836Z,102764.41
2023-04-08T19:22:13.232Z,102764.72
2023-04-08T19:24:39.684Z,102775.88
2023-04-08T19:27:06.188Z,102777.28
2023-04-08T19:29:35.424Z,102780.31
2023-04-08T19:32:03.118Z,102776.09
2023-04-08T19:34:30.049Z,102777.84
2023-04-08T19:36:56.504Z,102782.72
2023-04-08T19:39:25.234Z,102778.75
2023-04-08T19:41:53.199Z,102781.16
2023-04-08T19:44:19.696Z,102781.72
2023-04-08T19:46:46.293Z,102777.94
2023-04-08T19:49:12.794Z,102781.22
2023-04-08T19:51:39.258Z,102782.44
2023-04-08T19:54:05.590Z,102783.22
2023-04-08T19:56:33.963Z,102788.19
2023-04-08T19:59:01.794Z,102791.56
2023-04-08T20:01:28.654Z,102789.34
2023-04-08T20:03:55.352Z,102791.13
2023-04-08T20:06:23.007Z,102791.53
2023-04-08T20:08:51.843Z,102801.72
2023-04-08T20:11:18.787Z,102808.81
2023-04-08T20:13:46.838Z,102804.19
2023-04-08T20:16:13.593Z,102801.31
2023-04-08T20:18:40.246Z,102804.91
2023-04-08T20:21:08.081Z,102807.44
2023-04-08T20:23:34.624Z,102809.97
2023-04-08T20:26:01.421Z,102810.22
2023-04-08T20:28:27.822Z,102813.97
2023-04-08T20:30:54.480Z,102814.25
2023-04-08T20:33:21.107Z,102822.13
2023-04-08T20:35:50.295Z,102826.91
2023-04-08T20:38:16.800Z,102822.16
2023-04-08T20:40:44.047Z,102826.53
2023-04-08T20:43:10.715Z,102826.19
2023-04-08T20:45:38.000Z,102829.75
2023-04-08T20:48:05.707Z,102825.25
2023-04-08T20:50:32.922Z,102827.31
2023-04-08T20:52:59.632Z,102832.28
2023-04-08T20:55:26.124Z,102822.22
2023-04-08T20:57:52.545Z,102825.97
2023-04-08T21:00:19.171Z,102828.47
2023-04-08T21:02:45.758Z,102829.72
2023-04-08T21:05:12.398Z,102827.47
2023-04-08T21:07:44.099Z,102831.63
2023-04-08T21:10:11.779Z,102828.53
2023-04-08T21:12:38.307Z,102830.59
2023-04-08T21:15:05.273Z,102831.03
2023-04-08T21:17:31.877Z,102836.81
2023-04-08T21:19:58.406Z,102832.09
2023-04-08T21:22:24.741Z,102840.53
2023-04-08T21:24:51.109Z,102837.25
2023-04-08T21:27:18.014Z,102835.00
2023-04-08T21:29:44.365Z,102834.81
2023-04-08T21:32:10.890Z,102830.28
2023-04-08T21:34:37.440Z,102829.28
2023-04-08T21:37:03.962Z,102828.88
2023-04-08T21:39:30.378Z,102827.47
2023-04-08T21:41:57.442Z,102822.53
2023-04-08T21:44:23.992Z,102829.94
2023-04-08T21:46:50.603Z,102829.13
2023-04-08T21:49:17.133Z,102818.84
2023-04-08T21:51:43.535Z,102817.19
2023-04-08T21:54:10.172Z,102829.13
2023-04-08T21:56:36.536Z,102824.19
2023-04-08T21:59:03.529Z,102828.13
2023-04-08T22:01:30.306Z,102831.00
2023-04-08T22:03:56.970Z,102833.03
2023-04-08T22:06:32.149Z,102826.69
2023-04-08T22:08:59.431Z,102829.16
2023-04-08T22:11:26.001Z,102830.38
2023-04-08T22:13:52.467Z,102827.91
2023-04-08T22:16:18.831Z,102827.50
2023-04-08T22:18:45.465Z,102831.81
2023-04-08T22:21:11.978Z,102830.34
2023-04-08T22:23:38.946Z,102829.94
2023-04-08T22:26:05.478Z,102827.88
2023-04-08T22:28:34.151Z,102825.19
2023-04-08T22:31:01.107Z,102835.69
2023-04-08T22:33:30.243Z,102842.50
2023-04-08T22:35:57.495Z,102844.13
2023-04-08T22:38:24.121Z,102835.50
2023-04-08T22:40:50.582Z,102838.97
2023-04-08T22:43:16.953Z,102838.16
2023-04-08T22:45:43.374Z,102841.47
2023-04-08T22:48:09.820Z,102838.16
2023-04-08T22:50:36.713Z,102835.25
2023-04-08T22:53:03.741Z,102835.25
2023-04-08T22:55:30.995Z,102835.66
2023-04-08T22:57:57.618Z,102828.88
2023-04-08T23:00:24.162Z,102835.66
2023-04-08T23:02:50.763Z,102834.84
2023-04-08T23:05:17.460Z,102833.00
2023-04-08T23:07:44.053Z,102827.44
2023-04-08T23:10:10.890Z,102831.16
2023-04-08T23:12:37.313Z,102836.50
2023-04-08T23:15:04.428Z,102834.44
2023-04-08T23:17:30.827Z,102835.88
2023-04-08T23:19:57.214Z,102829.69
2023-04-08T23:22:23.599Z,102826.59
2023-04-08T23:24:50.533Z,102829.47
2023-04-08T23:27:16.936Z,102828.06
2023-04-08T23:29:43.364Z,102829.69
2023-04-08T23:32:09.878Z,102828.06
2023-04-08T23:34:37.176Z,102825.38
2023-04-08T23:37:04.394Z,102827.44
2023-04-08T23:39:32.011Z,102826.59
2023-04-08T23:41:58.562Z,102828.88
2023-04-08T23:44:25.256Z,102827.00
2023-04-08T23:46:51.777Z,102825.16
2023-04-08T23:49:18.232Z,102824.94
2023-04-08T23:51:44.724Z,102819.81
2023-04-08T23:54:11.239Z,102811.78
2023-04-08T23:56:39.970Z,102814.03
2023-04-08T23:59:06.363Z,102809.72
